sensor_id;sensor_type;location;lat;lon;timestamp;temperature;humidity
63802;DHT22;49949;43.060;25.624;2023-04-24T00:02:05;8.50;99.90
63802;DHT22;49949;43.060;25.624;2023-04-24T00:04:32;8.40;99.90
63802;DHT22;49949;43.060;25.624;2023-04-24T00:06:58;8.30;99.90
63802;DHT22;49949;43.060;25.624;2023-04-24T00:09:25;8.30;99.90
63802;DHT22;49949;43.060;25.624;2023-04-24T00:11:52;8.30;99.90
63802;DHT22;49949;43.060;25.624;2023-04-24T00:14:19;8.30;99.90
63802;DHT22;49949;43.060;25.624;2023-04-24T00:16:44;8.30;99.90
63802;DHT22;49949;43.060;25.624;2023-04-24T00:19:10;8.20;99.90
63802;DHT22;49949;43.060;25.624;2023-04-24T00:21:37;8.20;99.90
63802;DHT22;49949;43.060;25.624;2023-04-24T00:24:03;8.10;99.90
63802;DHT22;49949;43.060;25.624;2023-04-24T00:26:29;8.20;99.90
63802;DHT22;49949;43.060;25.624;2023-04-24T00:28:54;8.20;99.90
63802;DHT22;49949;43.060;25.624;2023-04-24T00:31:20;8.20;99.90
63802;DHT22;49949;43.060;25.624;2023-04-24T00:33:46;8.20;99.90
63802;DHT22;49949;43.060;25.624;2023-04-24T00:36:11;8.10;99.90
63802;DHT22;49949;43.060;25.624;2023-04-24T00:38:37;8.00;99.90
63802;DHT22;49949;43.060;25.624;2023-04-24T00:41:03;7.90;99.90
63802;DHT22;49949;43.060;25.624;2023-04-24T00:43:28;7.90;99.90
63802;DHT22;49949;43.060;25.624;2023-04-24T00:45:54;7.90;99.90
63802;DHT22;49949;43.060;25.624;2023-04-24T00:48:21;7.70;99.90
63802;DHT22;49949;43.060;25.624;2023-04-24T00:50:46;7.70;99.90
63802;DHT22;49949;43.060;25.624;2023-04-24T00:53:12;7.70;99.90
63802;DHT22;49949;43.060;25.624;2023-04-24T00:55:38;7.70;99.90
63802;DHT22;49949;43.060;25.624;2023-04-24T00:58:04;7.60;99.90
63802;DHT22;49949;43.060;25.624;2023-04-24T01:00:30;7.50;99.90
63802;DHT22;49949;43.060;25.624;2023-04-24T01:02:58;7.40;99.90
63802;DHT22;49949;43.060;25.624;2023-04-24T01:05:24;7.40;99.90
63802;DHT22;49949;43.060;25.624;2023-04-24T01:07:51;7.30;99.90
63802;DHT22;49949;43.060;25.624;2023-04-24T01:10:16;7.30;99.90
63802;DHT22;49949;43.060;25.624;2023-04-24T01:12:43;7.20;99.90
63802;DHT22;49949;43.060;25.624;2023-04-24T01:15:09;7.10;99.90
63802;DHT22;49949;43.060;25.624;2023-04-24T01:17:35;7.10;99.90
63802;DHT22;49949;43.060;25.624;2023-04-24T01:20:01;7.10;99.90
63802;DHT22;49949;43.060;25.624;2023-04-24T01:22:31;7.00;99.90
63802;DHT22;49949;43.060;25.624;2023-04-24T01:24:57;7.00;99.90
63802;DHT22;49949;43.060;25.624;2023-04-24T01:27:23;7.00;99.90
63802;DHT22;49949;43.060;25.624;2023-04-24T01:29:49;6.90;99.90
63802;DHT22;49949;43.060;25.624;2023-04-24T01:32:17;6.90;99.90
63802;DHT22;49949;43.060;25.624;2023-04-24T01:34:44;6.90;99.90
63802;DHT22;49949;43.060;25.624;2023-04-24T01:37:10;6.90;99.90
63802;DHT22;49949;43.060;25.624;2023-04-24T01:39:36;6.80;99.90
63802;DHT22;49949;43.060;25.624;2023-04-24T01:42:02;6.70;99.90
63802;DHT22;49949;43.060;25.624;2023-04-24T01:44:28;6.80;99.90
63802;DHT22;49949;43.060;25.624;2023-04-24T01:46:55;6.80;99.90
63802;DHT22;49949;43.060;25.624;2023-04-24T01:49:21;6.80;99.90
63802;DHT22;49949;43.060;25.624;2023-04-24T01:51:47;6.80;99.90
63802;DHT22;49949;43.060;25.624;2023-04-24T01:54:12;6.70;99.90
63802;DHT22;49949;43.060;25.624;2023-04-24T01:56:41;6.80;99.90
63802;DHT22;49949;43.060;25.624;2023-04-24T01:59:10;6.80;99.90
63802;DHT22;49949;43.060;25.624;2023-04-24T02:01:36;6.80;99.90
63802;DHT22;49949;43.060;25.624;2023-04-24T02:04:02;6.80;99.90
63802;DHT22;49949;43.060;25.624;2023-04-24T02:06:28;6.80;99.90
63802;DHT22;49949;43.060;25.624;2023-04-24T02:08:54;6.80;99.90
63802;DHT22;49949;43.060;25.624;2023-04-24T02:11:19;6.90;99.90
63802;DHT22;49949;43.060;25.624;2023-04-24T02:13:45;6.90;99.90
63802;DHT22;49949;43.060;25.624;2023-04-24T02:16:11;6.80;99.90
63802;DHT22;49949;43.060;25.624;2023-04-24T02:18:36;6.80;99.90
63802;DHT22;49949;43.060;25.624;2023-04-24T02:21:02;6.90;99.90
63802;DHT22;49949;43.060;25.624;2023-04-24T02:23:28;6.90;99.90
63802;DHT22;49949;43.060;25.624;2023-04-24T02:25:53;6.90;99.90
63802;DHT22;49949;43.060;25.624;2023-04-24T02:28:19;6.90;99.90
63802;DHT22;49949;43.060;25.624;2023-04-24T02:30:45;6.90;99.90
63802;DHT22;49949;43.060;25.624;2023-04-24T02:33:11;6.80;99.90
63802;DHT22;49949;43.060;25.624;2023-04-24T02:35:37;6.80;99.90
63802;DHT22;49949;43.060;25.624;2023-04-24T02:38:03;6.80;99.90
63802;DHT22;49949;43.060;25.624;2023-04-24T02:40:29;6.70;99.90
63802;DHT22;49949;43.060;25.624;2023-04-24T02:42:55;6.70;99.90
63802;DHT22;49949;43.060;25.624;2023-04-24T02:45:21;6.70;99.90
63802;DHT22;49949;43.060;25.624;2023-04-24T02:47:46;6.60;99.90
63802;DHT22;49949;43.060;25.624;2023-04-24T02:50:12;6.50;99.90
63802;DHT22;49949;43.060;25.624;2023-04-24T02:52:38;6.50;99.90
63802;DHT22;49949;43.060;25.624;2023-04-24T02:55:04;6.50;99.90
63802;DHT22;49949;43.060;25.624;2023-04-24T02:57:30;6.50;99.90
63802;DHT22;49949;43.060;25.624;2023-04-24T02:59:56;6.50;99.90
63802;DHT22;49949;43.060;25.624;2023-04-24T03:02:21;6.40;99.90
63802;DHT22;49949;43.060;25.624;2023-04-24T03:04:47;6.40;99.90
63802;DHT22;49949;43.060;25.624;2023-04-24T03:07:15;6.30;99.90
63802;DHT22;49949;43.060;25.624;2023-04-24T03:09:41;6.30;99.90
63802;DHT22;49949;43.060;25.624;2023-04-24T03:12:07;6.30;99.90
63802;DHT22;49949;43.060;25.624;2023-04-24T03:14:33;6.30;99.90
63802;DHT22;49949;43.060;25.624;2023-04-24T03:16:59;6.20;99.90
63802;DHT22;49949;43.060;25.624;2023-04-24T03:19:25;6.20;99.90
63802;DHT22;49949;43.060;25.624;2023-04-24T03:21:50;6.10;99.90
63802;DHT22;49949;43.060;25.624;2023-04-24T03:24:16;6.10;99.90
63802;DHT22;49949;43.060;25.624;2023-04-24T03:26:42;6.10;99.90
63802;DHT22;49949;43.060;25.624;2023-04-24T03:29:10;6.10;99.90
63802;DHT22;49949;43.060;25.624;2023-04-24T03:31:36;6.10;99.90
63802;DHT22;49949;43.060;25.624;2023-04-24T03:34:01;6.20;99.90
63802;DHT22;49949;43.060;25.624;2023-04-24T03:36:27;6.20;99.90
63802;DHT22;49949;43.060;25.624;2023-04-24T03:38:53;6.20;99.90
63802;DHT22;49949;43.060;25.624;2023-04-24T03:41:18;6.20;99.90
63802;DHT22;49949;43.060;25.624;2023-04-24T03:43:44;6.20;99.90
63802;DHT22;49949;43.060;25.624;2023-04-24T03:46:10;6.10;99.90
63802;DHT22;49949;43.060;25.624;2023-04-24T03:48:36;6.10;99.90
63802;DHT22;49949;43.060;25.624;2023-04-24T03:51:01;6.20;99.90
63802;DHT22;49949;43.060;25.624;2023-04-24T03:53:28;6.20;99.90
63802;DHT22;49949;43.060;25.624;2023-04-24T03:55:53;6.20;99.90
63802;DHT22;49949;43.060;25.624;2023-04-24T03:58:19;6.30;99.90
63802;DHT22;49949;43.060;25.624;2023-04-24T04:00:45;6.40;99.90
63802;DHT22;49949;43.060;25.624;2023-04-24T04:03:13;6.40;99.90
63802;DHT22;49949;43.060;25.624;2023-04-24T04:05:40;6.40;99.90
63802;DHT22;49949;43.060;25.624;2023-04-24T04:08:05;6.50;99.90
63802;DHT22;49949;43.060;25.624;2023-04-24T04:10:31;6.70;99.90
63802;DHT22;49949;43.060;25.624;2023-04-24T04:12:57;7.20;99.90
63802;DHT22;49949;43.060;25.624;2023-04-24T04:15:23;7.80;99.90
63802;DHT22;49949;43.060;25.624;2023-04-24T04:17:49;8.60;99.90
63802;DHT22;49949;43.060;25.624;2023-04-24T04:20:14;9.30;99.90
63802;DHT22;49949;43.060;25.624;2023-04-24T04:22:40;9.90;99.90
63802;DHT22;49949;43.060;25.624;2023-04-24T04:25:06;10.30;99.90
63802;DHT22;49949;43.060;25.624;2023-04-24T04:27:32;10.40;99.90
63802;DHT22;49949;43.060;25.624;2023-04-24T04:29:58;10.20;99.90
63802;DHT22;49949;43.060;25.624;2023-04-24T04:32:28;10.60;99.90
63802;DHT22;49949;43.060;25.624;2023-04-24T04:34:54;11.10;99.90
63802;DHT22;49949;43.060;25.624;2023-04-24T04:37:19;11.60;99.90
63802;DHT22;49949;43.060;25.624;2023-04-24T04:39:46;12.10;99.90
63802;DHT22;49949;43.060;25.624;2023-04-24T04:42:11;12.60;99.90
63802;DHT22;49949;43.060;25.624;2023-04-24T04:44:37;12.90;99.90
63802;DHT22;49949;43.060;25.624;2023-04-24T04:47:04;13.20;99.90
63802;DHT22;49949;43.060;25.624;2023-04-24T04:49:34;13.60;99.90
63802;DHT22;49949;43.060;25.624;2023-04-24T04:52:00;13.90;99.90
63802;DHT22;49949;43.060;25.624;2023-04-24T04:54:25;14.10;99.90
63802;DHT22;49949;43.060;25.624;2023-04-24T04:56:51;14.50;99.90
63802;DHT22;49949;43.060;25.624;2023-04-24T04:59:17;15.00;99.90
63802;DHT22;49949;43.060;25.624;2023-04-24T05:01:43;15.50;99.90
63802;DHT22;49949;43.060;25.624;2023-04-24T05:04:09;15.80;99.90
63802;DHT22;49949;43.060;25.624;2023-04-24T05:06:34;16.00;99.90
63802;DHT22;49949;43.060;25.624;2023-04-24T05:09:00;16.10;99.90
63802;DHT22;49949;43.060;25.624;2023-04-24T05:11:26;16.20;99.90
63802;DHT22;49949;43.060;25.624;2023-04-24T05:13:51;16.60;99.90
63802;DHT22;49949;43.060;25.624;2023-04-24T05:16:17;16.60;99.90
63802;DHT22;49949;43.060;25.624;2023-04-24T05:18:43;16.30;99.90
63802;DHT22;49949;43.060;25.624;2023-04-24T05:21:08;16.70;99.90
63802;DHT22;49949;43.060;25.624;2023-04-24T05:23:34;17.10;99.90
63802;DHT22;49949;43.060;25.624;2023-04-24T05:26:00;17.30;99.90
63802;DHT22;49949;43.060;25.624;2023-04-24T05:28:26;17.50;99.90
63802;DHT22;49949;43.060;25.624;2023-04-24T05:30:55;17.70;99.90
63802;DHT22;49949;43.060;25.624;2023-04-24T05:33:21;17.80;99.90
63802;DHT22;49949;43.060;25.624;2023-04-24T05:35:48;17.80;99.90
63802;DHT22;49949;43.060;25.624;2023-04-24T05:38:13;17.90;99.90
63802;DHT22;49949;43.060;25.624;2023-04-24T05:40:43;18.10;99.90
63802;DHT22;49949;43.060;25.624;2023-04-24T05:43:08;18.40;98.10
63802;DHT22;49949;43.060;25.624;2023-04-24T05:45:34;18.60;97.40
63802;DHT22;49949;43.060;25.624;2023-04-24T05:48:02;18.70;96.20
63802;DHT22;49949;43.060;25.624;2023-04-24T05:50:27;18.90;95.00
63802;DHT22;49949;43.060;25.624;2023-04-24T05:52:53;19.00;94.20
63802;DHT22;49949;43.060;25.624;2023-04-24T05:55:19;19.10;93.90
63802;DHT22;49949;43.060;25.624;2023-04-24T05:57:45;19.20;94.60
63802;DHT22;49949;43.060;25.624;2023-04-24T06:00:11;19.30;94.50
63802;DHT22;49949;43.060;25.624;2023-04-24T06:02:38;19.10;92.70
63802;DHT22;49949;43.060;25.624;2023-04-24T06:05:04;18.90;93.70
63802;DHT22;49949;43.060;25.624;2023-04-24T06:07:30;18.90;93.40
63802;DHT22;49949;43.060;25.624;2023-04-24T06:09:56;18.80;93.00
63802;DHT22;49949;43.060;25.624;2023-04-24T06:12:22;18.60;92.90
63802;DHT22;49949;43.060;25.624;2023-04-24T06:14:48;18.60;93.50
63802;DHT22;49949;43.060;25.624;2023-04-24T06:17:15;18.60;95.10
63802;DHT22;49949;43.060;25.624;2023-04-24T06:19:41;18.70;94.80
63802;DHT22;49949;43.060;25.624;2023-04-24T06:22:07;19.00;92.20
63802;DHT22;49949;43.060;25.624;2023-04-24T06:24:34;18.80;92.20
63802;DHT22;49949;43.060;25.624;2023-04-24T06:27:00;19.00;91.30
63802;DHT22;49949;43.060;25.624;2023-04-24T06:29:27;19.20;92.50
63802;DHT22;49949;43.060;25.624;2023-04-24T06:31:53;19.20;90.40
63802;DHT22;49949;43.060;25.624;2023-04-24T06:34:18;19.30;89.00
63802;DHT22;49949;43.060;25.624;2023-04-24T06:36:44;19.20;88.80
63802;DHT22;49949;43.060;25.624;2023-04-24T06:39:10;19.40;90.80
63802;DHT22;49949;43.060;25.624;2023-04-24T06:41:35;19.60;89.00
63802;DHT22;49949;43.060;25.624;2023-04-24T06:44:01;19.60;87.90
63802;DHT22;49949;43.060;25.624;2023-04-24T06:46:27;19.90;87.80
63802;DHT22;49949;43.060;25.624;2023-04-24T06:48:56;19.80;84.70
63802;DHT22;49949;43.060;25.624;2023-04-24T06:51:25;19.40;86.20
63802;DHT22;49949;43.060;25.624;2023-04-24T06:53:54;19.10;86.60
63802;DHT22;49949;43.060;25.624;2023-04-24T06:56:22;19.10;86.70
63802;DHT22;49949;43.060;25.624;2023-04-24T06:58:48;19.20;88.10
63802;DHT22;49949;43.060;25.624;2023-04-24T07:01:13;19.10;86.50
63802;DHT22;49949;43.060;25.624;2023-04-24T07:03:39;19.30;87.90
63802;DHT22;49949;43.060;25.624;2023-04-24T07:06:05;19.30;86.00
63802;DHT22;49949;43.060;25.624;2023-04-24T07:08:31;19.50;87.90
63802;DHT22;49949;43.060;25.624;2023-04-24T07:10:58;19.70;86.50
63802;DHT22;49949;43.060;25.624;2023-04-24T07:13:24;19.90;83.70
63802;DHT22;49949;43.060;25.624;2023-04-24T07:15:50;20.30;85.70
63802;DHT22;49949;43.060;25.624;2023-04-24T07:18:18;20.50;85.10
63802;DHT22;49949;43.060;25.624;2023-04-24T07:20:44;20.80;84.50
63802;DHT22;49949;43.060;25.624;2023-04-24T07:23:10;20.80;82.10
63802;DHT22;49949;43.060;25.624;2023-04-24T07:25:36;20.80;83.30
63802;DHT22;49949;43.060;25.624;2023-04-24T07:28:01;21.00;81.90
63802;DHT22;49949;43.060;25.624;2023-04-24T07:30:27;20.90;82.60
63802;DHT22;49949;43.060;25.624;2023-04-24T07:32:54;20.90;82.40
63802;DHT22;49949;43.060;25.624;2023-04-24T07:35:21;20.80;80.60
63802;DHT22;49949;43.060;25.624;2023-04-24T07:37:47;20.60;78.20
63802;DHT22;49949;43.060;25.624;2023-04-24T07:40:13;20.60;83.10
63802;DHT22;49949;43.060;25.624;2023-04-24T07:42:39;20.50;81.60
63802;DHT22;49949;43.060;25.624;2023-04-24T07:45:05;20.60;83.90
63802;DHT22;49949;43.060;25.624;2023-04-24T07:47:32;20.70;82.40
63802;DHT22;49949;43.060;25.624;2023-04-24T07:49:58;20.90;82.00
63802;DHT22;49949;43.060;25.624;2023-04-24T07:52:24;21.00;78.70
63802;DHT22;49949;43.060;25.624;2023-04-24T07:54:50;21.20;78.60
63802;DHT22;49949;43.060;25.624;2023-04-24T07:57:18;21.10;77.40
63802;DHT22;49949;43.060;25.624;2023-04-24T07:59:44;20.80;78.40
63802;DHT22;49949;43.060;25.624;2023-04-24T08:02:09;20.50;78.50
63802;DHT22;49949;43.060;25.624;2023-04-24T08:04:35;20.20;78.80
63802;DHT22;49949;43.060;25.624;2023-04-24T08:07:01;20.00;79.30
63802;DHT22;49949;43.060;25.624;2023-04-24T08:09:26;19.90;80.70
63802;DHT22;49949;43.060;25.624;2023-04-24T08:11:52;20.00;80.50
63802;DHT22;49949;43.060;25.624;2023-04-24T08:14:18;20.10;81.10
63802;DHT22;49949;43.060;25.624;2023-04-24T08:16:44;20.10;80.20
63802;DHT22;49949;43.060;25.624;2023-04-24T08:19:10;20.10;79.30
63802;DHT22;49949;43.060;25.624;2023-04-24T08:21:36;20.20;78.60
63802;DHT22;49949;43.060;25.624;2023-04-24T08:24:01;20.40;81.30
63802;DHT22;49949;43.060;25.624;2023-04-24T08:26:30;20.70;81.30
63802;DHT22;49949;43.060;25.624;2023-04-24T08:28:57;20.80;83.20
63802;DHT22;49949;43.060;25.624;2023-04-24T08:31:23;20.90;81.50
63802;DHT22;49949;43.060;25.624;2023-04-24T08:33:50;20.90;81.30
63802;DHT22;49949;43.060;25.624;2023-04-24T08:36:16;21.00;80.90
63802;DHT22;49949;43.060;25.624;2023-04-24T08:38:42;21.00;80.20
63802;DHT22;49949;43.060;25.624;2023-04-24T08:41:09;21.00;81.30
63802;DHT22;49949;43.060;25.624;2023-04-24T08:43:35;21.00;79.60
63802;DHT22;49949;43.060;25.624;2023-04-24T08:46:04;20.90;83.70
63802;DHT22;49949;43.060;25.624;2023-04-24T08:48:30;20.70;85.30
63802;DHT22;49949;43.060;25.624;2023-04-24T08:50:57;20.60;83.10
63802;DHT22;49949;43.060;25.624;2023-04-24T08:53:24;20.50;83.20
63802;DHT22;49949;43.060;25.624;2023-04-24T08:55:51;20.40;81.60
63802;DHT22;49949;43.060;25.624;2023-04-24T08:58:19;20.20;83.30
63802;DHT22;49949;43.060;25.624;2023-04-24T09:00:45;20.20;82.70
63802;DHT22;49949;43.060;25.624;2023-04-24T09:03:16;20.10;84.10
63802;DHT22;49949;43.060;25.624;2023-04-24T09:05:47;20.10;85.40
63802;DHT22;49949;43.060;25.624;2023-04-24T09:08:13;20.10;84.10
63802;DHT22;49949;43.060;25.624;2023-04-24T09:10:40;20.10;84.10
63802;DHT22;49949;43.060;25.624;2023-04-24T09:13:06;20.20;80.70
63802;DHT22;49949;43.060;25.624;2023-04-24T09:15:34;20.20;82.40
63802;DHT22;49949;43.060;25.624;2023-04-24T09:18:01;20.30;82.30
63802;DHT22;49949;43.060;25.624;2023-04-24T09:20:27;20.50;83.30
63802;DHT22;49949;43.060;25.624;2023-04-24T09:22:57;20.80;83.00
63802;DHT22;49949;43.060;25.624;2023-04-24T09:25:31;21.20;81.40
63802;DHT22;49949;43.060;25.624;2023-04-24T09:28:00;21.80;79.90
63802;DHT22;49949;43.060;25.624;2023-04-24T09:30:27;22.30;78.60
63802;DHT22;49949;43.060;25.624;2023-04-24T09:33:13;22.20;76.60
63802;DHT22;49949;43.060;25.624;2023-04-24T09:35:50;22.10;76.20
63802;DHT22;49949;43.060;25.624;2023-04-24T09:38:15;22.10;77.40
63802;DHT22;49949;43.060;25.624;2023-04-24T09:40:41;22.10;76.90
63802;DHT22;49949;43.060;25.624;2023-04-24T09:43:10;22.00;76.20
63802;DHT22;49949;43.060;25.624;2023-04-24T09:45:40;22.00;73.40
63802;DHT22;49949;43.060;25.624;2023-04-24T09:48:09;22.10;72.30
63802;DHT22;49949;43.060;25.624;2023-04-24T09:50:35;22.30;71.60
63802;DHT22;49949;43.060;25.624;2023-04-24T09:53:05;22.60;70.30
63802;DHT22;49949;43.060;25.624;2023-04-24T09:55:39;22.80;70.80
63802;DHT22;49949;43.060;25.624;2023-04-24T09:58:08;23.00;69.90
63802;DHT22;49949;43.060;25.624;2023-04-24T10:00:33;23.00;69.00
63802;DHT22;49949;43.060;25.624;2023-04-24T10:03:00;23.00;68.80
63802;DHT22;49949;43.060;25.624;2023-04-24T10:05:31;23.00;69.90
63802;DHT22;49949;43.060;25.624;2023-04-24T10:08:09;22.80;68.10
63802;DHT22;49949;43.060;25.624;2023-04-24T10:10:45;22.80;69.80
63802;DHT22;49949;43.060;25.624;2023-04-24T10:13:12;22.70;69.60
63802;DHT22;49949;43.060;25.624;2023-04-24T10:15:40;22.50;68.80
63802;DHT22;49949;43.060;25.624;2023-04-24T10:18:07;22.50;69.50
63802;DHT22;49949;43.060;25.624;2023-04-24T10:20:35;22.30;71.10
63802;DHT22;49949;43.060;25.624;2023-04-24T10:23:02;22.50;71.10
63802;DHT22;49949;43.060;25.624;2023-04-24T10:25:31;22.40;70.10
63802;DHT22;49949;43.060;25.624;2023-04-24T10:27:58;22.30;71.90
63802;DHT22;49949;43.060;25.624;2023-04-24T10:30:29;22.40;72.20
63802;DHT22;49949;43.060;25.624;2023-04-24T10:32:56;22.40;73.00
63802;DHT22;49949;43.060;25.624;2023-04-24T10:35:22;22.70;73.70
63802;DHT22;49949;43.060;25.624;2023-04-24T10:37:56;22.90;71.30
63802;DHT22;49949;43.060;25.624;2023-04-24T10:40:40;23.00;69.40
63802;DHT22;49949;43.060;25.624;2023-04-24T10:43:07;22.90;68.60
63802;DHT22;49949;43.060;25.624;2023-04-24T10:45:37;23.10;70.70
63802;DHT22;49949;43.060;25.624;2023-04-24T10:48:08;23.20;67.20
63802;DHT22;49949;43.060;25.624;2023-04-24T10:50:46;23.20;69.70
63802;DHT22;49949;43.060;25.624;2023-04-24T10:53:18;23.00;69.70
63802;DHT22;49949;43.060;25.624;2023-04-24T10:58:12;22.70;69.50
63802;DHT22;49949;43.060;25.624;2023-04-24T11:00:39;22.50;69.00
63802;DHT22;49949;43.060;25.624;2023-04-24T11:03:26;22.40;68.30
63802;DHT22;49949;43.060;25.624;2023-04-24T11:06:06;22.30;69.50
63802;DHT22;49949;43.060;25.624;2023-04-24T11:08:43;22.20;69.50
63802;DHT22;49949;43.060;25.624;2023-04-24T11:11:14;22.00;68.30
63802;DHT22;49949;43.060;25.624;2023-04-24T11:16:26;22.00;71.50
63802;DHT22;49949;43.060;25.624;2023-04-24T11:24:28;22.10;70.90
63802;DHT22;49949;43.060;25.624;2023-04-24T11:26:56;22.20;68.10
63802;DHT22;49949;43.060;25.624;2023-04-24T11:29:22;22.10;69.20
63802;DHT22;49949;43.060;25.624;2023-04-24T11:31:49;22.30;69.50
63802;DHT22;49949;43.060;25.624;2023-04-24T11:34:17;22.40;68.60
63802;DHT22;49949;43.060;25.624;2023-04-24T11:36:46;22.50;69.10
63802;DHT22;49949;43.060;25.624;2023-04-24T11:39:13;22.60;67.60
63802;DHT22;49949;43.060;25.624;2023-04-24T11:41:39;22.60;68.10
63802;DHT22;49949;43.060;25.624;2023-04-24T11:44:09;22.60;68.20
63802;DHT22;49949;43.060;25.624;2023-04-24T11:46:36;22.80;68.50
63802;DHT22;49949;43.060;25.624;2023-04-24T11:49:03;23.00;65.80
63802;DHT22;49949;43.060;25.624;2023-04-24T11:51:29;23.10;66.90
63802;DHT22;49949;43.060;25.624;2023-04-24T11:53:56;23.30;66.50
63802;DHT22;49949;43.060;25.624;2023-04-24T11:56:23;23.40;65.20
63802;DHT22;49949;43.060;25.624;2023-04-24T11:58:52;23.70;67.40
63802;DHT22;49949;43.060;25.624;2023-04-24T12:01:19;23.70;66.00
63802;DHT22;49949;43.060;25.624;2023-04-24T12:03:49;23.70;64.50
63802;DHT22;49949;43.060;25.624;2023-04-24T12:06:16;23.70;63.20
63802;DHT22;49949;43.060;25.624;2023-04-24T12:08:42;23.60;65.30
63802;DHT22;49949;43.060;25.624;2023-04-24T12:11:10;23.60;66.20
63802;DHT22;49949;43.060;25.624;2023-04-24T12:13:37;23.60;65.60
63802;DHT22;49949;43.060;25.624;2023-04-24T12:16:03;23.50;65.50
63802;DHT22;49949;43.060;25.624;2023-04-24T12:18:30;23.30;65.00
63802;DHT22;49949;43.060;25.624;2023-04-24T12:21:18;23.30;65.80
63802;DHT22;49949;43.060;25.624;2023-04-24T12:23:44;23.40;65.80
63802;DHT22;49949;43.060;25.624;2023-04-24T12:26:17;23.20;66.20
63802;DHT22;49949;43.060;25.624;2023-04-24T12:28:47;23.10;67.90
63802;DHT22;49949;43.060;25.624;2023-04-24T12:31:13;23.00;66.80
63802;DHT22;49949;43.060;25.624;2023-04-24T12:33:39;23.10;67.70
63802;DHT22;49949;43.060;25.624;2023-04-24T12:36:05;23.10;67.60
63802;DHT22;49949;43.060;25.624;2023-04-24T12:38:31;23.20;66.70
63802;DHT22;49949;43.060;25.624;2023-04-24T12:41:10;23.30;67.90
63802;DHT22;49949;43.060;25.624;2023-04-24T12:43:37;23.30;66.10
63802;DHT22;49949;43.060;25.624;2023-04-24T12:46:03;23.30;65.50
63802;DHT22;49949;43.060;25.624;2023-04-24T12:48:30;23.30;65.50
63802;DHT22;49949;43.060;25.624;2023-04-24T12:50:59;23.40;64.30
63802;DHT22;49949;43.060;25.624;2023-04-24T12:53:28;23.30;63.60
63802;DHT22;49949;43.060;25.624;2023-04-24T12:55:57;23.30;63.90
63802;DHT22;49949;43.060;25.624;2023-04-24T12:58:23;23.40;62.80
63802;DHT22;49949;43.060;25.624;2023-04-24T13:00:49;23.60;62.20
63802;DHT22;49949;43.060;25.624;2023-04-24T13:03:15;23.70;59.70
63802;DHT22;49949;43.060;25.624;2023-04-24T13:05:42;23.40;60.20
63802;DHT22;49949;43.060;25.624;2023-04-24T13:08:08;23.10;61.00
63802;DHT22;49949;43.060;25.624;2023-04-24T13:10:34;23.00;61.30
63802;DHT22;49949;43.060;25.624;2023-04-24T13:13:00;23.00;62.00
63802;DHT22;49949;43.060;25.624;2023-04-24T13:15:26;23.00;61.30
63802;DHT22;49949;43.060;25.624;2023-04-24T13:17:51;22.90;59.20
63802;DHT22;49949;43.060;25.624;2023-04-24T13:20:17;23.00;59.70
63802;DHT22;49949;43.060;25.624;2023-04-24T13:22:43;23.00;61.40
63802;DHT22;49949;43.060;25.624;2023-04-24T13:25:09;22.80;64.90
63802;DHT22;49949;43.060;25.624;2023-04-24T13:27:37;22.70;66.70
63802;DHT22;49949;43.060;25.624;2023-04-24T13:30:03;22.40;69.50
63802;DHT22;49949;43.060;25.624;2023-04-24T13:32:29;22.30;70.10
63802;DHT22;49949;43.060;25.624;2023-04-24T13:34:54;22.30;70.60
63802;DHT22;49949;43.060;25.624;2023-04-24T13:37:20;22.20;72.40
63802;DHT22;49949;43.060;25.624;2023-04-24T13:39:47;22.30;73.00
63802;DHT22;49949;43.060;25.624;2023-04-24T13:42:13;22.30;72.40
63802;DHT22;49949;43.060;25.624;2023-04-24T13:44:39;22.30;72.00
63802;DHT22;49949;43.060;25.624;2023-04-24T13:47:05;22.40;73.60
63802;DHT22;49949;43.060;25.624;2023-04-24T13:49:31;22.40;72.60
63802;DHT22;49949;43.060;25.624;2023-04-24T13:51:57;22.40;70.90
63802;DHT22;49949;43.060;25.624;2023-04-24T13:54:22;22.30;73.90
63802;DHT22;49949;43.060;25.624;2023-04-24T13:56:51;22.20;71.50
63802;DHT22;49949;43.060;25.624;2023-04-24T13:59:17;22.20;71.10
63802;DHT22;49949;43.060;25.624;2023-04-24T14:01:42;22.00;70.60
63802;DHT22;49949;43.060;25.624;2023-04-24T14:04:10;22.00;72.00
63802;DHT22;49949;43.060;25.624;2023-04-24T14:06:36;22.00;72.70
63802;DHT22;49949;43.060;25.624;2023-04-24T14:09:02;22.20;70.70
63802;DHT22;49949;43.060;25.624;2023-04-24T14:11:28;22.20;70.50
63802;DHT22;49949;43.060;25.624;2023-04-24T14:13:54;22.20;69.40
63802;DHT22;49949;43.060;25.624;2023-04-24T14:16:21;22.20;69.70
63802;DHT22;49949;43.060;25.624;2023-04-24T14:18:47;22.20;69.00
63802;DHT22;49949;43.060;25.624;2023-04-24T14:21:13;22.10;69.50
63802;DHT22;49949;43.060;25.624;2023-04-24T14:23:39;22.00;69.70
63802;DHT22;49949;43.060;25.624;2023-04-24T14:26:04;22.00;70.40
63802;DHT22;49949;43.060;25.624;2023-04-24T14:28:30;21.80;70.50
63802;DHT22;49949;43.060;25.624;2023-04-24T14:30:56;21.70;71.00
63802;DHT22;49949;43.060;25.624;2023-04-24T14:33:22;21.70;70.90
63802;DHT22;49949;43.060;25.624;2023-04-24T14:35:47;21.70;70.60
63802;DHT22;49949;43.060;25.624;2023-04-24T14:38:13;21.80;70.40
63802;DHT22;49949;43.060;25.624;2023-04-24T14:40:40;21.80;72.00
63802;DHT22;49949;43.060;25.624;2023-04-24T14:43:06;21.60;72.70
63802;DHT22;49949;43.060;25.624;2023-04-24T14:45:32;21.50;73.30
63802;DHT22;49949;43.060;25.624;2023-04-24T14:47:58;21.30;74.30
63802;DHT22;49949;43.060;25.624;2023-04-24T14:50:24;21.30;75.10
63802;DHT22;49949;43.060;25.624;2023-04-24T14:52:56;21.20;74.80
63802;DHT22;49949;43.060;25.624;2023-04-24T14:55:23;21.00;75.30
63802;DHT22;49949;43.060;25.624;2023-04-24T14:57:49;20.90;76.00
63802;DHT22;49949;43.060;25.624;2023-04-24T15:00:15;20.90;77.00
63802;DHT22;49949;43.060;25.624;2023-04-24T15:02:42;21.00;76.60
63802;DHT22;49949;43.060;25.624;2023-04-24T15:05:10;20.60;77.10
63802;DHT22;49949;43.060;25.624;2023-04-24T15:07:36;20.60;77.20
63802;DHT22;49949;43.060;25.624;2023-04-24T15:10:02;20.60;77.90
63802;DHT22;49949;43.060;25.624;2023-04-24T15:12:28;20.60;79.30
63802;DHT22;49949;43.060;25.624;2023-04-24T15:14:54;20.40;78.50
63802;DHT22;49949;43.060;25.624;2023-04-24T15:17:20;20.30;79.80
63802;DHT22;49949;43.060;25.624;2023-04-24T15:19:46;20.20;79.60
63802;DHT22;49949;43.060;25.624;2023-04-24T15:22:11;20.10;80.60
63802;DHT22;49949;43.060;25.624;2023-04-24T15:24:37;20.00;80.70
63802;DHT22;49949;43.060;25.624;2023-04-24T15:27:02;19.90;81.20
63802;DHT22;49949;43.060;25.624;2023-04-24T15:29:29;19.70;82.40